NOAA Web Site Link Tides and Currents Home Page Transparent placeholder image

PORTS® Data Listing: 8545240 Philadelphia, PA

CO-OPS RAW PORTS DATA

************************      PRELIMINARY DATA      ************************** 

     THIS RAW DATA HAS NOT BEEN SUBJECT TO THE NATIONAL OCEAN SERVICE'S        
     QUALITY CONTROL OR QUALITY ASSURANCE PROCEDURES AND DOES NOT MEET         
     THE CRITERIA AND STANDARDS OF OFFICIAL NATIONAL OCEAN SERVICE             
     DATA.  IT IS RELEASED FOR LIMITED PUBLIC USE AS PRELIMINARY DATA TO       
     BE USED ONLY WITH APPROPRIATE CAUTION.                                    

************************      PRELIMINARY DATA      ************************** 


       CD   -   Calendar date
       T    -   Time
       TZ   -   Timezone
       PW   -   Predicted water level (feet above MLLW)
       OW   -   Observed water level (feet above MLLW)
       WS   -   Wind speed (knots)
       WD   -   Wind direction (degrees true)
       WG   -   Wind gust (knots)
       AT   -   Air temperature (degrees farenheit)
       WT   -   Water temperature (degrees farenheit)
       AP   -   Air pressure (millibars)
       SA   -   Salinty (PSU - Practical Salinity Units)
       SG   -   Specific gravity
       RH   -   Relative humidity
       AG   -   Air gap (feet)
       VI   -   Visibility (nautical miles)

       ** NOTE **
       A variable that has its data fields filled with "9"s, indicates that
       data was not collected for that sample period.
       **********


STATION NAME: Philadelphia (8545240)
****************************************************************************************************
    CD       T    TZ    PW     OW    WS   WD   WG    AT    WT    AP    SA    SG     RH    AG   VI
****************************************************************************************************
2018/01/17 12:54 EST    5.52   6.12 -999 -999 -999  27.5  32.2 1024.6 -9.9 -9.999 -99.9 -99.99 -9.99
2018/01/17 13:00 EST    5.60   6.17 -999 -999 -999  27.5  32.2 1024.7 -9.9 -9.999 -99.9 -99.99 -9.99
2018/01/17 13:06 EST    5.67   6.24 -999 -999 -999  27.9  32.2 1024.7 -9.9 -9.999 -99.9 -99.99 -9.99
2018/01/17 13:12 EST    5.73   6.32 -999 -999 -999  27.7  32.2 1024.7 -9.9 -9.999 -99.9 -99.99 -9.99
2018/01/17 13:18 EST    5.79   6.34 -999 -999 -999  27.5  32.2 1024.5 -9.9 -9.999 -99.9 -99.99 -9.99
2018/01/17 13:24 EST    5.84   6.42 -999 -999 -999  27.7  32.2 1024.4 -9.9 -9.999 -99.9 -99.99 -9.99
2018/01/17 13:30 EST    5.88   6.44 -999 -999 -999  27.9  32.2 1024.4 -9.9 -9.999 -99.9 -99.99 -9.99
2018/01/17 13:36 EST    5.91   6.46 -999 -999 -999  27.9  32.2 1024.4 -9.9 -9.999 -99.9 -99.99 -9.99
2018/01/17 13:42 EST    5.93   6.49 -999 -999 -999  27.9  32.2 1024.5 -9.9 -9.999 -99.9 -99.99 -9.99
2018/01/17 13:48 EST    5.94   6.48 -999 -999 -999  27.5  32.2 1024.3 -9.9 -9.999 -99.9 -99.99 -9.99
2018/01/17 13:54 EST    5.94   6.46 -999 -999 -999  27.1  32.2 1024.4 -9.9 -9.999 -99.9 -99.99 -9.99
2018/01/17 14:00 EST    5.93   6.44 -999 -999 -999  27.9  32.2 1024.6 -9.9 -9.999 -99.9 -99.99 -9.99
2018/01/17 14:06 EST    5.91   6.41 -999 -999 -999  27.9  32.2 1024.5 -9.9 -9.999 -99.9 -99.99 -9.99
2018/01/17 14:12 EST    5.88   6.36 -999 -999 -999  27.7  32.2 1024.5 -9.9 -9.999 -99.9 -99.99 -9.99
2018/01/17 14:18 EST    5.84   6.31 -999 -999 -999  28.0  32.2 1024.5 -9.9 -9.999 -99.9 -99.99 -9.99
2018/01/17 14:24 EST    5.79   6.24 -999 -999 -999  27.5  32.2 1024.2 -9.9 -9.999 -99.9 -99.99 -9.99
2018/01/17 14:30 EST    5.73   6.18 -999 -999 -999  27.1  32.2 1024.2 -9.9 -9.999 -99.9 -99.99 -9.99
2018/01/17 14:36 EST    5.66   6.10 -999 -999 -999  27.0  32.2 1024.2 -9.9 -9.999 -99.9 -99.99 -9.99
2018/01/17 14:42 EST    5.59   6.02 -999 -999 -999  27.0  32.2 1024.4 -9.9 -9.999 -99.9 -99.99 -9.99
2018/01/17 14:48 EST    5.51   5.91 -999 -999 -999  26.4  32.2 1024.4 -9.9 -9.999 -99.9 -99.99 -9.99
2018/01/17 14:54 EST    5.43   5.83 -999 -999 -999  26.8  32.2 1024.3 -9.9 -9.999 -99.9 -99.99 -9.99
2018/01/17 15:00 EST    5.34   5.74 -999 -999 -999  26.8  32.2 1024.2 -9.9 -9.999 -99.9 -99.99 -9.99
2018/01/17 15:06 EST    5.24   5.63 -999 -999 -999  26.4  32.4 1024.2 -9.9 -9.999 -99.9 -99.99 -9.99
2018/01/17 15:12 EST    5.14   5.51 -999 -999 -999  26.4  32.4 1024.2 -9.9 -9.999 -99.9 -99.99 -9.99
2018/01/17 15:18 EST    5.04   5.39 -999 -999 -999  26.4  32.4 1024.1 -9.9 -9.999 -99.9 -99.99 -9.99
2018/01/17 15:24 EST    4.94   5.29 -999 -999 -999  26.1  32.4 1024.0 -9.9 -9.999 -99.9 -99.99 -9.99
2018/01/17 15:30 EST    4.83   5.18 -999 -999 -999  25.9  32.4 1024.0 -9.9 -9.999 -99.9 -99.99 -9.99
2018/01/17 15:36 EST    4.73   5.08 -999 -999 -999  26.1  32.4 1024.0 -9.9 -9.999 -99.9 -99.99 -9.99
2018/01/17 15:42 EST    4.62   4.95 -999 -999 -999  26.1  32.4 1024.0 -9.9 -9.999 -99.9 -99.99 -9.99
2018/01/17 15:48 EST    4.51   4.83 -999 -999 -999  26.6  32.4 1023.8 -9.9 -9.999 -99.9 -99.99 -9.99
2018/01/17 15:54 EST    4.40   4.72 -999 -999 -999  26.6  32.4 1023.8 -9.9 -9.999 -99.9 -99.99 -9.99
2018/01/17 16:00 EST    4.29   4.61 -999 -999 -999  26.4  32.4 1023.8 -9.9 -9.999 -99.9 -99.99 -9.99
2018/01/17 16:06 EST    4.18   4.50 -999 -999 -999  26.1  32.4 1023.9 -9.9 -9.999 -99.9 -99.99 -9.99
2018/01/17 16:12 EST    4.07   4.38 -999 -999 -999  25.9  32.4 1024.1 -9.9 -9.999 -99.9 -99.99 -9.99
2018/01/17 16:18 EST    3.96   4.27 -999 -999 -999  26.1  32.4 1024.0 -9.9 -9.999 -99.9 -99.99 -9.99
2018/01/17 16:24 EST    3.85   4.16 -999 -999 -999  25.9  32.4 1024.0 -9.9 -9.999 -99.9 -99.99 -9.99
2018/01/17 16:30 EST    3.74   4.06 -999 -999 -999  25.9  32.4 1024.0 -9.9 -9.999 -99.9 -99.99 -9.99
2018/01/17 16:36 EST    3.63   3.95 -999 -999 -999  25.9  32.4 1023.8 -9.9 -9.999 -99.9 -99.99 -9.99
2018/01/17 16:42 EST    3.52   3.84 -999 -999 -999  25.5  32.4 1023.9 -9.9 -9.999 -99.9 -99.99 -9.99
2018/01/17 16:48 EST    3.41   3.73 -999 -999 -999  25.7  32.4 1023.8 -9.9 -9.999 -99.9 -99.99 -9.99
2018/01/17 16:54 EST    3.30   3.62 -999 -999 -999  25.5  32.4 1023.9 -9.9 -9.999 -99.9 -99.99 -9.99
2018/01/17 17:00 EST    3.19   3.51 -999 -999 -999  25.7  32.4 1023.8 -9.9 -9.999 -99.9 -99.99 -9.99
2018/01/17 17:06 EST    3.08   3.40 -999 -999 -999  25.9  32.4 1023.9 -9.9 -9.999 -99.9 -99.99 -9.99
2018/01/17 17:12 EST    2.97   3.30 -999 -999 -999  25.7  32.4 1023.9 -9.9 -9.999 -99.9 -99.99 -9.99
2018/01/17 17:18 EST    2.86   3.19 -999 -999 -999  25.7  32.4 1023.9 -9.9 -9.999 -99.9 -99.99 -9.99
2018/01/17 17:24 EST    2.76   3.08 -999 -999 -999  25.5  32.4 1023.8 -9.9 -9.999 -99.9 -99.99 -9.99
2018/01/17 17:30 EST    2.65   2.97 -999 -999 -999  25.5  32.4 1024.0 -9.9 -9.999 -99.9 -99.99 -9.99
2018/01/17 17:36 EST    2.54   2.87 -999 -999 -999  25.7  32.4 1024.0 -9.9 -9.999 -99.9 -99.99 -9.99
2018/01/17 17:42 EST    2.43   2.75 -999 -999 -999  25.7  32.4 1023.9 -9.9 -9.999 -99.9 -99.99 -9.99
2018/01/17 17:48 EST    2.32   2.65 -999 -999 -999  25.7  32.4 1023.8 -9.9 -9.999 -99.9 -99.99 -9.99
2018/01/17 17:54 EST    2.22   2.54 -999 -999 -999  25.5  32.4 1023.9 -9.9 -9.999 -99.9 -99.99 -9.99
2018/01/17 18:00 EST    2.11   2.44 -999 -999 -999  25.5  32.4 1023.8 -9.9 -9.999 -99.9 -99.99 -9.99
2018/01/17 18:06 EST    2.00   2.33 -999 -999 -999  25.5  32.4 1023.9 -9.9 -9.999 -99.9 -99.99 -9.99
2018/01/17 18:12 EST    1.89   2.23 -999 -999 -999  25.5  32.4 1023.9 -9.9 -9.999 -99.9 -99.99 -9.99
2018/01/17 18:18 EST    1.79   2.12 -999 -999 -999  25.5  32.4 1023.7 -9.9 -9.999 -99.9 -99.99 -9.99
2018/01/17 18:24 EST    1.68   2.00 -999 -999 -999  25.3  32.4 1023.8 -9.9 -9.999 -99.9 -99.99 -9.99
2018/01/17 18:30 EST    1.57   1.90 -999 -999 -999  25.5  32.4 1023.8 -9.9 -9.999 -99.9 -99.99 -9.99
2018/01/17 18:36 EST    1.46   1.80 -999 -999 -999  25.3  32.4 1023.8 -9.9 -9.999 -99.9 -99.99 -9.99
2018/01/17 18:42 EST    1.35   1.69 -999 -999 -999  25.2  32.4 1023.8 -9.9 -9.999 -99.9 -99.99 -9.99
2018/01/17 18:48 EST    1.24   1.60 -999 -999 -999  25.3  32.4 1023.9 -9.9 -9.999 -99.9 -99.99 -9.99
2018/01/17 18:54 EST    1.13   1.50 -999 -999 -999  25.3  32.4 1024.1 -9.9 -9.999 -99.9 -99.99 -9.99
2018/01/17 19:00 EST    1.02   1.39 -999 -999 -999  25.3  32.4 1024.0 -9.9 -9.999 -99.9 -99.99 -9.99
2018/01/17 19:06 EST    0.91   1.29 -999 -999 -999  25.3  32.4 1024.2 -9.9 -9.999 -99.9 -99.99 -9.99
2018/01/17 19:12 EST    0.79   1.20 -999 -999 -999  25.2  32.4 1024.1 -9.9 -9.999 -99.9 -99.99 -9.99
2018/01/17 19:18 EST    0.68   1.10 -999 -999 -999  25.3  32.4 1024.0 -9.9 -9.999 -99.9 -99.99 -9.99
2018/01/17 19:24 EST    0.57   1.00 -999 -999 -999  25.3  32.4 1024.0 -9.9 -9.999 -99.9 -99.99 -9.99
2018/01/17 19:30 EST    0.46   0.91 -999 -999 -999  25.0  32.4 1023.8 -9.9 -9.999 -99.9 -99.99 -9.99
2018/01/17 19:36 EST    0.35   0.82 -999 -999 -999  25.3  32.4 1023.7 -9.9 -9.999 -99.9 -99.99 -9.99
2018/01/17 19:42 EST    0.25   0.72 -999 -999 -999  25.2  32.4 1023.6 -9.9 -9.999 -99.9 -99.99 -9.99
2018/01/17 19:48 EST    0.15   0.63 -999 -999 -999  25.2  32.4 1023.7 -9.9 -9.999 -99.9 -99.99 -9.99
2018/01/17 19:54 EST    0.05   0.55 -999 -999 -999  25.2  32.4 1023.6 -9.9 -9.999 -99.9 -99.99 -9.99
2018/01/17 20:00 EST   -0.04   0.46 -999 -999 -999  25.0  32.4 1023.7 -9.9 -9.999 -99.9 -99.99 -9.99
2018/01/17 20:06 EST   -0.12   0.38 -999 -999 -999  24.8  32.4 1023.7 -9.9 -9.999 -99.9 -99.99 -9.99
2018/01/17 20:12 EST   -0.20   0.29 -999 -999 -999  24.8  32.4 1023.8 -9.9 -9.999 -99.9 -99.99 -9.99
2018/01/17 20:18 EST   -0.26   0.21 -999 -999 -999  24.8  32.4 1023.5 -9.9 -9.999 -99.9 -99.99 -9.99
2018/01/17 20:24 EST   -0.32   0.14 -999 -999 -999  24.6  32.4 1023.7 -9.9 -9.999 -99.9 -99.99 -9.99
2018/01/17 20:30 EST   -0.36   0.06 -999 -999 -999  24.6  32.4 1023.6 -9.9 -9.999 -99.9 -99.99 -9.99
2018/01/17 20:36 EST   -0.39  -0.01 -999 -999 -999  24.8  32.4 1023.6 -9.9 -9.999 -99.9 -99.99 -9.99
2018/01/17 20:42 EST   -0.41  -0.08 -999 -999 -999  24.6  32.4 1023.8 -9.9 -9.999 -99.9 -99.99 -9.99
2018/01/17 20:48 EST   -0.41  -0.14 -999 -999 -999  24.6  32.4 1023.7 -9.9 -9.999 -99.9 -99.99 -9.99
2018/01/17 20:54 EST   -0.40  -0.21 -999 -999 -999  24.4  32.4 1023.9 -9.9 -9.999 -99.9 -99.99 -9.99
2018/01/17 21:00 EST   -0.37  -0.26 -999 -999 -999  24.6  32.4 1024.1 -9.9 -9.999 -99.9 -99.99 -9.99
2018/01/17 21:06 EST   -0.33  -0.31 -999 -999 -999  24.4  32.4 1023.8 -9.9 -9.999 -99.9 -99.99 -9.99
2018/01/17 21:12 EST   -0.28  -0.35 -999 -999 -999  24.4  32.4 1023.9 -9.9 -9.999 -99.9 -99.99 -9.99
2018/01/17 21:18 EST   -0.21  -0.37 -999 -999 -999  24.3  32.4 1023.9 -9.9 -9.999 -99.9 -99.99 -9.99
2018/01/17 21:24 EST   -0.12  -0.40 -999 -999 -999  24.1  32.4 1023.9 -9.9 -9.999 -99.9 -99.99 -9.99
2018/01/17 21:30 EST   -0.03  -0.38 -999 -999 -999  24.1  32.4 1023.8 -9.9 -9.999 -99.9 -99.99 -9.99
2018/01/17 21:36 EST    0.09  -0.34 -999 -999 -999  24.1  32.4 1024.1 -9.9 -9.999 -99.9 -99.99 -9.99
2018/01/17 21:42 EST    0.21  -0.25 -999 -999 -999  24.1  32.4 1023.7 -9.9 -9.999 -99.9 -99.99 -9.99
2018/01/17 21:48 EST    0.34  -0.11 -999 -999 -999  23.9  32.2 1023.8 -9.9 -9.999 -99.9 -99.99 -9.99
2018/01/17 21:54 EST    0.48   0.07 -999 -999 -999  23.7  32.4 1023.6 -9.9 -9.999 -99.9 -99.99 -9.99
2018/01/17 22:00 EST    0.63   0.31 -999 -999 -999  23.7  32.4 1023.9 -9.9 -9.999 -99.9 -99.99 -9.99
2018/01/17 22:06 EST    0.78   0.54 -999 -999 -999  23.5  32.4 1023.9 -9.9 -9.999 -99.9 -99.99 -9.99
2018/01/17 22:12 EST    0.94   0.77 -999 -999 -999  23.4  32.4 1023.6 -9.9 -9.999 -99.9 -99.99 -9.99
2018/01/17 22:18 EST    1.10   0.99 -999 -999 -999  23.4  32.4 1023.9 -9.9 -9.999 -99.9 -99.99 -9.99
2018/01/17 22:24 EST    1.26   1.18 -999 -999 -999  23.4  32.2 1023.8 -9.9 -9.999 -99.9 -99.99 -9.99
2018/01/17 22:30 EST    1.42   1.37 -999 -999 -999  23.0  32.2 1023.7 -9.9 -9.999 -99.9 -99.99 -9.99
2018/01/17 22:36 EST    1.58   1.57 -999 -999 -999  22.8  32.2 1023.7 -9.9 -9.999 -99.9 -99.99 -9.99
2018/01/17 22:42 EST    1.74   1.77 -999 -999 -999  22.8  32.2 1023.9 -9.9 -9.999 -99.9 -99.99 -9.99
2018/01/17 22:48 EST    1.90   1.92 -999 -999 -999  22.6  32.2 1023.8 -9.9 -9.999 -99.9 -99.99 -9.99
2018/01/17 22:54 EST    2.05   2.09 -999 -999 -999  22.5  32.2 1023.7 -9.9 -9.999 -99.9 -99.99 -9.99
2018/01/17 23:00 EST    2.20   2.25 -999 -999 -999  22.3  32.2 1023.8 -9.9 -9.999 -99.9 -99.99 -9.99
2018/01/17 23:06 EST    2.34   2.41 -999 -999 -999  22.1  32.4 1023.8 -9.9 -9.999 -99.9 -99.99 -9.99
2018/01/17 23:12 EST    2.47   2.54 -999 -999 -999  22.1  32.2 1023.7 -9.9 -9.999 -99.9 -99.99 -9.99
2018/01/17 23:18 EST    2.61   2.69 -999 -999 -999  22.1  32.2 1023.6 -9.9 -9.999 -99.9 -99.99 -9.99
2018/01/17 23:24 EST    2.73   2.83 -999 -999 -999  22.1  32.2 1023.4 -9.9 -9.999 -99.9 -99.99 -9.99
2018/01/17 23:30 EST    2.85   2.97 -999 -999 -999  22.1  32.2 1023.4 -9.9 -9.999 -99.9 -99.99 -9.99
2018/01/17 23:36 EST    2.97   3.12 -999 -999 -999  22.1  32.2 1023.2 -9.9 -9.999 -99.9 -99.99 -9.99
2018/01/17 23:42 EST    3.08   3.25 -999 -999 -999  21.9  32.2 1023.3 -9.9 -9.999 -99.9 -99.99 -9.99
2018/01/17 23:48 EST    3.19   3.36 -999 -999 -999  22.1  32.2 1023.2 -9.9 -9.999 -99.9 -99.99 -9.99
2018/01/17 23:54 EST    3.30   3.47 -999 -999 -999  21.9  32.2 1023.3 -9.9 -9.999 -99.9 -99.99 -9.99
2018/01/18 00:00 EST    3.40   3.60 -999 -999 -999  21.7  32.2 1023.4 -9.9 -9.999 -99.9 -99.99 -9.99
2018/01/18 00:06 EST    3.50   3.71 -999 -999 -999  21.6  32.2 1023.3 -9.9 -9.999 -99.9 -99.99 -9.99
2018/01/18 00:12 EST    3.60   3.82 -999 -999 -999  21.6  32.2 1023.3 -9.9 -9.999 -99.9 -99.99 -9.99
2018/01/18 00:18 EST    3.70   3.94 -999 -999 -999  21.4  32.4 1023.3 -9.9 -9.999 -99.9 -99.99 -9.99
2018/01/18 00:24 EST    3.80   4.03 -999 -999 -999  21.4  32.4 1023.2 -9.9 -9.999 -99.9 -99.99 -9.99
2018/01/18 00:30 EST    3.89   4.14 -999 -999 -999  21.2  32.4 1023.1 -9.9 -9.999 -99.9 -99.99 -9.99
2018/01/18 00:36 EST    3.99   4.24 -999 -999 -999  21.2  32.4 1022.9 -9.9 -9.999 -99.9 -99.99 -9.99
2018/01/18 00:42 EST    4.09   4.34 -999 -999 -999  21.0  32.4 1022.9 -9.9 -9.999 -99.9 -99.99 -9.99
2018/01/18 00:48 EST    4.18   4.44 -999 -999 -999  21.0  32.4 1022.8 -9.9 -9.999 -99.9 -99.99 -9.99
2018/01/18 00:54 EST    4.28   4.52 -999 -999 -999  20.8  32.4 1022.7 -9.9 -9.999 -99.9 -99.99 -9.99
2018/01/18 01:00 EST    4.37   4.61 -999 -999 -999  20.8  32.4 1022.5 -9.9 -9.999 -99.9 -99.99 -9.99
2018/01/18 01:06 EST    4.46   4.68 -999 -999 -999  20.7  32.4 1022.3 -9.9 -9.999 -99.9 -99.99 -9.99
2018/01/18 01:12 EST    4.55   4.76 -999 -999 -999  20.7  32.4 1022.2 -9.9 -9.999 -99.9 -99.99 -9.99
2018/01/18 01:18 EST    4.63   4.81 -999 -999 -999  20.5  32.4 1022.4 -9.9 -9.999 -99.9 -99.99 -9.99
2018/01/18 01:24 EST    4.71   4.86 -999 -999 -999  20.3  32.4 1022.2 -9.9 -9.999 -99.9 -99.99 -9.99
2018/01/18 01:30 EST    4.78   4.92 -999 -999 -999  20.3  32.4 1022.1 -9.9 -9.999 -99.9 -99.99 -9.99
2018/01/18 01:36 EST    4.85   4.97 -999 -999 -999  20.3  32.4 1022.0 -9.9 -9.999 -99.9 -99.99 -9.99
2018/01/18 01:42 EST    4.91   5.03 -999 -999 -999  20.3  32.4 1022.1 -9.9 -9.999 -99.9 -99.99 -9.99
2018/01/18 01:48 EST    4.96   5.07 -999 -999 -999  20.3  32.4 1022.0 -9.9 -9.999 -99.9 -99.99 -9.99
2018/01/18 01:54 EST    5.01   5.11 -999 -999 -999  20.3  32.4 1022.1 -9.9 -9.999 -99.9 -99.99 -9.99
2018/01/18 02:00 EST    5.04   5.15 -999 -999 -999  20.1  32.4 1022.1 -9.9 -9.999 -99.9 -99.99 -9.99
2018/01/18 02:06 EST    5.06   5.17 -999 -999 -999  20.3  32.4 1022.1 -9.9 -9.999 -99.9 -99.99 -9.99
2018/01/18 02:12 EST    5.08   5.18 -999 -999 -999  20.1  32.4 1022.0 -9.9 -9.999 -99.9 -99.99 -9.99
2018/01/18 02:18 EST    5.08   5.16 -999 -999 -999  20.1  32.4 1021.8 -9.9 -9.999 -99.9 -99.99 -9.99
2018/01/18 02:24 EST    5.08   5.16 -999 -999 -999  20.1  32.4 1021.8 -9.9 -9.999 -99.9 -99.99 -9.99
2018/01/18 02:30 EST    5.06   5.11 -999 -999 -999  20.3  32.4 1021.4 -9.9 -9.999 -99.9 -99.99 -9.99
2018/01/18 02:36 EST    5.04   5.08 -999 -999 -999  20.1  32.4 1021.1 -9.9 -9.999 -99.9 -99.99 -9.99
2018/01/18 02:42 EST    5.00   5.01 -999 -999 -999  19.8  32.4 1020.8 -9.9 -9.999 -99.9 -99.99 -9.99
2018/01/18 02:48 EST    4.95   4.96 -999 -999 -999  19.8  32.4 1020.6 -9.9 -9.999 -99.9 -99.99 -9.99
2018/01/18 02:54 EST    4.90   4.89 -999 -999 -999  19.8  32.4 1020.2 -9.9 -9.999 -99.9 -99.99 -9.99
2018/01/18 03:00 EST    4.84   4.84 -999 -999 -999  19.8  32.4 1019.8 -9.9 -9.999 -99.9 -99.99 -9.99
2018/01/18 03:06 EST    4.76   4.78 -999 -999 -999  19.6  32.4 1019.3 -9.9 -9.999 -99.9 -99.99 -9.99
2018/01/18 03:12 EST    4.69   4.71 -999 -999 -999  19.4  32.4 1019.5 -9.9 -9.999 -99.9 -99.99 -9.99
2018/01/18 03:18 EST    4.60   4.64 -999 -999 -999  19.4  32.4 1019.8 -9.9 -9.999 -99.9 -99.99 -9.99
2018/01/18 03:24 EST    4.51   4.55 -999 -999 -999  19.4  32.4 1019.9 -9.9 -9.999 -99.9 -99.99 -9.99
2018/01/18 03:30 EST    4.42   4.47 -999 -999 -999  19.4  32.4 1020.2 -9.9 -9.999 -99.9 -99.99 -9.99
2018/01/18 03:36 EST    4.32   4.35 -999 -999 -999  19.2  32.4 1020.1 -9.9 -9.999 -99.9 -99.99 -9.99
2018/01/18 03:42 EST    4.21   4.26 -999 -999 -999  19.4  32.4 1020.1 -9.9 -9.999 -99.9 -99.99 -9.99
2018/01/18 03:48 EST    4.11   4.15 -999 -999 -999  19.4  32.4 1020.2 -9.9 -9.999 -99.9 -99.99 -9.99
2018/01/18 03:54 EST    4.00   4.04 -999 -999 -999  19.2  32.2 1020.0 -9.9 -9.999 -99.9 -99.99 -9.99
2018/01/18 04:00 EST    3.89   3.94 -999 -999 -999  19.2  32.4 1019.9 -9.9 -9.999 -99.9 -99.99 -9.99
2018/01/18 04:06 EST    3.78   3.83 -999 -999 -999  19.2  32.4 1019.7 -9.9 -9.999 -99.9 -99.99 -9.99
2018/01/18 04:12 EST    3.66   3.71 -999 -999 -999  19.2  32.4 1019.2 -9.9 -9.999 -99.9 -99.99 -9.99
2018/01/18 04:18 EST    3.55   3.60 -999 -999 -999  19.4  32.2 1018.9 -9.9 -9.999 -99.9 -99.99 -9.99
2018/01/18 04:24 EST    3.44   3.49 -999 -999 -999  19.2  32.2 1018.7 -9.9 -9.999 -99.9 -99.99 -9.99
2018/01/18 04:30 EST    3.32   3.38 -999 -999 -999  19.2  32.2 1018.8 -9.9 -9.999 -99.9 -99.99 -9.99
2018/01/18 04:36 EST    3.21   3.27 -999 -999 -999  19.2  32.2 1018.4 -9.9 -9.999 -99.9 -99.99 -9.99
2018/01/18 04:42 EST    3.09   3.15 -999 -999 -999  19.0  32.2 1018.3 -9.9 -9.999 -99.9 -99.99 -9.99
2018/01/18 04:48 EST    2.97   3.06 -999 -999 -999  18.9  32.2 1018.2 -9.9 -9.999 -99.9 -99.99 -9.99
2018/01/18 04:54 EST    2.86   2.97 -999 -999 -999  18.9  32.2 1018.1 -9.9 -9.999 -99.9 -99.99 -9.99
2018/01/18 05:00 EST    2.75   2.87 -999 -999 -999  18.9  32.2 1018.1 -9.9 -9.999 -99.9 -99.99 -9.99
2018/01/18 05:06 EST    2.63   2.76 -999 -999 -999  18.7  32.2 1018.1 -9.9 -9.999 -99.9 -99.99 -9.99
2018/01/18 05:12 EST    2.52   2.65 -999 -999 -999  18.5  32.2 1018.5 -9.9 -9.999 -99.9 -99.99 -9.99
2018/01/18 05:18 EST    2.40   2.54 -999 -999 -999  18.5  32.2 1019.2 -9.9 -9.999 -99.9 -99.99 -9.99
2018/01/18 05:24 EST    2.29   2.43 -999 -999 -999  18.3  32.2 1019.2 -9.9 -9.999 -99.9 -99.99 -9.99
2018/01/18 05:30 EST    2.18   2.33 -999 -999 -999  18.3  32.2 1019.3 -9.9 -9.999 -99.9 -99.99 -9.99
2018/01/18 05:36 EST    2.07   2.21 -999 -999 -999  18.1  32.2 1019.7 -9.9 -9.999 -99.9 -99.99 -9.99
2018/01/18 05:42 EST    1.96   2.10 -999 -999 -999  18.1  32.2 1020.0 -9.9 -9.999 -99.9 -99.99 -9.99
2018/01/18 05:48 EST    1.85   2.00 -999 -999 -999  18.1  32.2 1020.3 -9.9 -9.999 -99.9 -99.99 -9.99
2018/01/18 05:54 EST    1.75   1.90 -999 -999 -999  18.1  32.2 1020.1 -9.9 -9.999 -99.9 -99.99 -9.99
2018/01/18 06:00 EST    1.64   1.79 -999 -999 -999  18.3  32.2 1020.1 -9.9 -9.999 -99.9 -99.99 -9.99
2018/01/18 06:06 EST    1.54   1.69 -999 -999 -999  18.5  32.2 1020.4 -9.9 -9.999 -99.9 -99.99 -9.99
2018/01/18 06:12 EST    1.43   1.59 -999 -999 -999  18.5  32.2 1020.6 -9.9 -9.999 -99.9 -99.99 -9.99
2018/01/18 06:18 EST    1.33   1.48 -999 -999 -999  18.5  32.2 1020.7 -9.9 -9.999 -99.9 -99.99 -9.99
2018/01/18 06:24 EST    1.23   1.38 -999 -999 -999  18.5  32.2 1020.8 -9.9 -9.999 -99.9 -99.99 -9.99
2018/01/18 06:30 EST    1.14   1.27 -999 -999 -999  18.7  32.2 1020.8 -9.9 -9.999 -99.9 -99.99 -9.99
2018/01/18 06:36 EST    1.04   1.18 -999 -999 -999  19.0  32.2 1020.6 -9.9 -9.999 -99.9 -99.99 -9.99
2018/01/18 06:42 EST    0.95   1.09 -999 -999 -999  19.2  32.2 1020.6 -9.9 -9.999 -99.9 -99.99 -9.99
2018/01/18 06:48 EST    0.86 -99.99 -999 -999 -999 -99.9 -99.9 -999.9 -9.9 -9.999 -99.9 -99.99 -9.99
2018/01/18 06:54 EST    0.77 -99.99 -999 -999 -999 -99.9 -99.9 -999.9 -9.9 -9.999 -99.9 -99.99 -9.99
2018/01/18 07:00 EST    0.68 -99.99 -999 -999 -999 -99.9 -99.9 -999.9 -9.9 -9.999 -99.9 -99.99 -9.99
2018/01/18 07:06 EST    0.59 -99.99 -999 -999 -999 -99.9 -99.9 -999.9 -9.9 -9.999 -99.9 -99.99 -9.99
2018/01/18 07:12 EST    0.50 -99.99 -999 -999 -999 -99.9 -99.9 -999.9 -9.9 -9.999 -99.9 -99.99 -9.99
2018/01/18 07:18 EST    0.42 -99.99 -999 -999 -999 -99.9 -99.9 -999.9 -9.9 -9.999 -99.9 -99.99 -9.99
2018/01/18 07:24 EST    0.33 -99.99 -999 -999 -999 -99.9 -99.9 -999.9 -9.9 -9.999 -99.9 -99.99 -9.99
2018/01/18 07:30 EST    0.25 -99.99 -999 -999 -999 -99.9 -99.9 -999.9 -9.9 -9.999 -99.9 -99.99 -9.99
2018/01/18 07:36 EST    0.17 -99.99 -999 -999 -999 -99.9 -99.9 -999.9 -9.9 -9.999 -99.9 -99.99 -9.99
2018/01/18 07:42 EST    0.09 -99.99 -999 -999 -999 -99.9 -99.9 -999.9 -9.9 -9.999 -99.9 -99.99 -9.99
2018/01/18 07:48 EST    0.02 -99.99 -999 -999 -999 -99.9 -99.9 -999.9 -9.9 -9.999 -99.9 -99.99 -9.99
2018/01/18 07:54 EST   -0.06 -99.99 -999 -999 -999 -99.9 -99.9 -999.9 -9.9 -9.999 -99.9 -99.99 -9.99
2018/01/18 08:00 EST   -0.12 -99.99 -999 -999 -999 -99.9 -99.9 -999.9 -9.9 -9.999 -99.9 -99.99 -9.99
2018/01/18 08:06 EST   -0.19 -99.99 -999 -999 -999 -99.9 -99.9 -999.9 -9.9 -9.999 -99.9 -99.99 -9.99
2018/01/18 08:12 EST   -0.24 -99.99 -999 -999 -999 -99.9 -99.9 -999.9 -9.9 -9.999 -99.9 -99.99 -9.99
2018/01/18 08:18 EST   -0.30 -99.99 -999 -999 -999 -99.9 -99.9 -999.9 -9.9 -9.999 -99.9 -99.99 -9.99
2018/01/18 08:24 EST   -0.34 -99.99 -999 -999 -999 -99.9 -99.9 -999.9 -9.9 -9.999 -99.9 -99.99 -9.99
2018/01/18 08:30 EST   -0.38 -99.99 -999 -999 -999 -99.9 -99.9 -999.9 -9.9 -9.999 -99.9 -99.99 -9.99
2018/01/18 08:36 EST   -0.40 -99.99 -999 -999 -999 -99.9 -99.9 -999.9 -9.9 -9.999 -99.9 -99.99 -9.99
2018/01/18 08:42 EST   -0.42 -99.99 -999 -999 -999 -99.9 -99.9 -999.9 -9.9 -9.999 -99.9 -99.99 -9.99
2018/01/18 08:48 EST   -0.42 -99.99 -999 -999 -999 -99.9 -99.9 -999.9 -9.9 -9.999 -99.9 -99.99 -9.99
2018/01/18 08:54 EST   -0.42 -99.99 -999 -999 -999 -99.9 -99.9 -999.9 -9.9 -9.999 -99.9 -99.99 -9.99
2018/01/18 09:00 EST   -0.40 -99.99 -999 -999 -999 -99.9 -99.9 -999.9 -9.9 -9.999 -99.9 -99.99 -9.99
2018/01/18 09:06 EST   -0.36 -99.99 -999 -999 -999 -99.9 -99.9 -999.9 -9.9 -9.999 -99.9 -99.99 -9.99
2018/01/18 09:12 EST   -0.31 -99.99 -999 -999 -999 -99.9 -99.9 -999.9 -9.9 -9.999 -99.9 -99.99 -9.99
2018/01/18 09:18 EST   -0.25 -99.99 -999 -999 -999 -99.9 -99.9 -999.9 -9.9 -9.999 -99.9 -99.99 -9.99
2018/01/18 09:24 EST   -0.17 -99.99 -999 -999 -999 -99.9 -99.9 -999.9 -9.9 -9.999 -99.9 -99.99 -9.99
2018/01/18 09:30 EST   -0.08 -99.99 -999 -999 -999 -99.9 -99.9 -999.9 -9.9 -9.999 -99.9 -99.99 -9.99
2018/01/18 09:36 EST    0.03 -99.99 -999 -999 -999 -99.9 -99.9 -999.9 -9.9 -9.999 -99.9 -99.99 -9.99
2018/01/18 09:42 EST    0.15 -99.99 -999 -999 -999 -99.9 -99.9 -999.9 -9.9 -9.999 -99.9 -99.99 -9.99
2018/01/18 09:48 EST    0.29 -99.99 -999 -999 -999 -99.9 -99.9 -999.9 -9.9 -9.999 -99.9 -99.99 -9.99
2018/01/18 09:54 EST    0.44 -99.99 -999 -999 -999 -99.9 -99.9 -999.9 -9.9 -9.999 -99.9 -99.99 -9.99
2018/01/18 10:00 EST    0.60 -99.99 -999 -999 -999 -99.9 -99.9 -999.9 -9.9 -9.999 -99.9 -99.99 -9.99
2018/01/18 10:06 EST    0.77 -99.99 -999 -999 -999 -99.9 -99.9 -999.9 -9.9 -9.999 -99.9 -99.99 -9.99
2018/01/18 10:12 EST    0.95 -99.99 -999 -999 -999 -99.9 -99.9 -999.9 -9.9 -9.999 -99.9 -99.99 -9.99
2018/01/18 10:18 EST    1.13 -99.99 -999 -999 -999 -99.9 -99.9 -999.9 -9.9 -9.999 -99.9 -99.99 -9.99
2018/01/18 10:24 EST    1.33 -99.99 -999 -999 -999 -99.9 -99.9 -999.9 -9.9 -9.999 -99.9 -99.99 -9.99
2018/01/18 10:30 EST    1.52 -99.99 -999 -999 -999 -99.9 -99.9 -999.9 -9.9 -9.999 -99.9 -99.99 -9.99
2018/01/18 10:36 EST    1.72 -99.99 -999 -999 -999 -99.9 -99.9 -999.9 -9.9 -9.999 -99.9 -99.99 -9.99
2018/01/18 10:42 EST    1.93 -99.99 -999 -999 -999 -99.9 -99.9 -999.9 -9.9 -9.999 -99.9 -99.99 -9.99
2018/01/18 10:48 EST    2.13 -99.99 -999 -999 -999 -99.9 -99.9 -999.9 -9.9 -9.999 -99.9 -99.99 -9.99
2018/01/18 10:54 EST    2.33 -99.99 -999 -999 -999 -99.9 -99.9 -999.9 -9.9 -9.999 -99.9 -99.99 -9.99
2018/01/18 11:00 EST    2.52 -99.99 -999 -999 -999 -99.9 -99.9 -999.9 -9.9 -9.999 -99.9 -99.99 -9.99
2018/01/18 11:06 EST    2.72 -99.99 -999 -999 -999 -99.9 -99.9 -999.9 -9.9 -9.999 -99.9 -99.99 -9.99
2018/01/18 11:12 EST    2.90 -99.99 -999 -999 -999 -99.9 -99.9 -999.9 -9.9 -9.999 -99.9 -99.99 -9.99
2018/01/18 11:18 EST    3.08 -99.99 -999 -999 -999 -99.9 -99.9 -999.9 -9.9 -9.999 -99.9 -99.99 -9.99
2018/01/18 11:24 EST    3.25 -99.99 -999 -999 -999 -99.9 -99.9 -999.9 -9.9 -9.999 -99.9 -99.99 -9.99
2018/01/18 11:30 EST    3.42 -99.99 -999 -999 -999 -99.9 -99.9 -999.9 -9.9 -9.999 -99.9 -99.99 -9.99
2018/01/18 11:36 EST    3.58 -99.99 -999 -999 -999 -99.9 -99.9 -999.9 -9.9 -9.999 -99.9 -99.99 -9.99
2018/01/18 11:42 EST    3.73 -99.99 -999 -999 -999 -99.9 -99.9 -999.9 -9.9 -9.999 -99.9 -99.99 -9.99
2018/01/18 11:48 EST    3.87 -99.99 -999 -999 -999 -99.9 -99.9 -999.9 -9.9 -9.999 -99.9 -99.99 -9.99
2018/01/18 11:54 EST    4.00 -99.99 -999 -999 -999 -99.9 -99.9 -999.9 -9.9 -9.999 -99.9 -99.99 -9.99
2018/01/18 12:00 EST    4.13 -99.99 -999 -999 -999 -99.9 -99.9 -999.9 -9.9 -9.999 -99.9 -99.99 -9.99
2018/01/18 12:06 EST    4.25 -99.99 -999 -999 -999 -99.9 -99.9 -999.9 -9.9 -9.999 -99.9 -99.99 -9.99
2018/01/18 12:12 EST    4.36 -99.99 -999 -999 -999 -99.9 -99.9 -999.9 -9.9 -9.999 -99.9 -99.99 -9.99
2018/01/18 12:18 EST    4.47 -99.99 -999 -999 -999 -99.9 -99.9 -999.9 -9.9 -9.999 -99.9 -99.99 -9.99
2018/01/18 12:24 EST    4.57 -99.99 -999 -999 -999 -99.9 -99.9 -999.9 -9.9 -9.999 -99.9 -99.99 -9.99
2018/01/18 12:30 EST    4.67 -99.99 -999 -999 -999 -99.9 -99.9 -999.9 -9.9 -9.999 -99.9 -99.99 -9.99
2018/01/18 12:36 EST    4.76 -99.99 -999 -999 -999 -99.9 -99.9 -999.9 -9.9 -9.999 -99.9 -99.99 -9.99
2018/01/18 12:42 EST    4.85 -99.99 -999 -999 -999 -99.9 -99.9 -999.9 -9.9 -9.999 -99.9 -99.99 -9.99
2018/01/18 12:48 EST    4.94 -99.99 -999 -999 -999 -99.9 -99.9 -999.9 -9.9 -9.999 -99.9 -99.99 -9.99
2018/01/18 12:54 EST    5.03 -99.99 -999 -999 -999 -99.9 -99.9 -999.9 -9.9 -9.999 -99.9 -99.99 -9.99

Revised: 10/15/2013
NOAA / National Ocean Service
Web site owner: Center for Operational Oceanographic Products and Services